sensor_id;sensor_type;location;lat;lon;timestamp;temperature;humidity
25753;DHT22;13600;50.816;4.416;2023-04-01T00:02:03;10.50;99.90
25753;DHT22;13600;50.816;4.416;2023-04-01T00:04:29;10.50;99.90
25753;DHT22;13600;50.816;4.416;2023-04-01T00:06:54;10.50;99.90
25753;DHT22;13600;50.816;4.416;2023-04-01T00:09:20;10.60;99.90
25753;DHT22;13600;50.816;4.416;2023-04-01T00:11:46;10.60;99.90
25753;DHT22;13600;50.816;4.416;2023-04-01T00:14:12;10.60;99.90
25753;DHT22;13600;50.816;4.416;2023-04-01T00:16:37;10.50;99.90
25753;DHT22;13600;50.816;4.416;2023-04-01T00:19:03;10.50;99.90
25753;DHT22;13600;50.816;4.416;2023-04-01T00:21:29;10.40;99.90
25753;DHT22;13600;50.816;4.416;2023-04-01T00:23:54;10.50;99.90
25753;DHT22;13600;50.816;4.416;2023-04-01T00:26:20;10.50;99.90
25753;DHT22;13600;50.816;4.416;2023-04-01T00:28:46;10.50;99.90
25753;DHT22;13600;50.816;4.416;2023-04-01T00:31:12;10.50;99.90
25753;DHT22;13600;50.816;4.416;2023-04-01T00:33:39;10.50;99.90
25753;DHT22;13600;50.816;4.416;2023-04-01T00:36:12;10.60;99.90
25753;DHT22;13600;50.816;4.416;2023-04-01T00:38:38;10.60;99.90
25753;DHT22;13600;50.816;4.416;2023-04-01T00:41:03;10.60;99.90
25753;DHT22;13600;50.816;4.416;2023-04-01T00:43:29;10.50;99.90
25753;DHT22;13600;50.816;4.416;2023-04-01T00:45:55;10.40;99.90
25753;DHT22;13600;50.816;4.416;2023-04-01T00:48:31;10.40;99.90
25753;DHT22;13600;50.816;4.416;2023-04-01T00:51:04;10.40;99.90
25753;DHT22;13600;50.816;4.416;2023-04-01T00:53:30;10.40;99.90
25753;DHT22;13600;50.816;4.416;2023-04-01T00:55:59;10.30;99.90
25753;DHT22;13600;50.816;4.416;2023-04-01T00:58:27;10.40;99.90
25753;DHT22;13600;50.816;4.416;2023-04-01T01:00:55;10.50;99.90
25753;DHT22;13600;50.816;4.416;2023-04-01T01:03:21;10.50;99.90
25753;DHT22;13600;50.816;4.416;2023-04-01T01:06:03;10.50;99.90
25753;DHT22;13600;50.816;4.416;2023-04-01T01:10:57;10.50;99.90
25753;DHT22;13600;50.816;4.416;2023-04-01T01:13:26;10.50;99.90
25753;DHT22;13600;50.816;4.416;2023-04-01T01:23:53;10.80;99.90
25753;DHT22;13600;50.816;4.416;2023-04-01T01:34:24;10.60;99.90
25753;DHT22;13600;50.816;4.416;2023-04-01T01:36:55;10.70;99.90
25753;DHT22;13600;50.816;4.416;2023-04-01T01:39:24;10.80;99.90
25753;DHT22;13600;50.816;4.416;2023-04-01T01:41:53;10.70;99.90
25753;DHT22;13600;50.816;4.416;2023-04-01T01:44:20;10.70;99.90
25753;DHT22;13600;50.816;4.416;2023-04-01T01:46:46;10.70;99.90
25753;DHT22;13600;50.816;4.416;2023-04-01T01:49:12;10.80;99.90
25753;DHT22;13600;50.816;4.416;2023-04-01T01:51:39;10.80;99.90
25753;DHT22;13600;50.816;4.416;2023-04-01T01:54:05;10.70;99.90
25753;DHT22;13600;50.816;4.416;2023-04-01T01:56:30;10.60;99.90
25753;DHT22;13600;50.816;4.416;2023-04-01T01:59:01;10.60;99.90
25753;DHT22;13600;50.816;4.416;2023-04-01T02:01:29;10.60;99.90
25753;DHT22;13600;50.816;4.416;2023-04-01T02:03:56;10.60;99.90
25753;DHT22;13600;50.816;4.416;2023-04-01T02:06:23;10.50;99.90
25753;DHT22;13600;50.816;4.416;2023-04-01T02:08:51;10.50;99.90
25753;DHT22;13600;50.816;4.416;2023-04-01T02:11:19;10.60;99.90
25753;DHT22;13600;50.816;4.416;2023-04-01T02:13:54;10.50;99.90
25753;DHT22;13600;50.816;4.416;2023-04-01T02:16:23;10.40;99.90
25753;DHT22;13600;50.816;4.416;2023-04-01T02:18:51;10.40;99.90
25753;DHT22;13600;50.816;4.416;2023-04-01T02:21:20;10.50;99.90
25753;DHT22;13600;50.816;4.416;2023-04-01T02:23:46;10.50;99.90
25753;DHT22;13600;50.816;4.416;2023-04-01T02:26:12;10.40;99.90
25753;DHT22;13600;50.816;4.416;2023-04-01T02:28:38;10.30;99.90
25753;DHT22;13600;50.816;4.416;2023-04-01T02:31:04;10.30;99.90
25753;DHT22;13600;50.816;4.416;2023-04-01T02:33:30;10.40;99.90
25753;DHT22;13600;50.816;4.416;2023-04-01T02:35:56;10.50;99.90
25753;DHT22;13600;50.816;4.416;2023-04-01T02:38:22;10.50;99.90
25753;DHT22;13600;50.816;4.416;2023-04-01T02:40:55;10.50;99.90
25753;DHT22;13600;50.816;4.416;2023-04-01T02:43:21;10.50;99.90
25753;DHT22;13600;50.816;4.416;2023-04-01T02:45:47;10.50;99.90
25753;DHT22;13600;50.816;4.416;2023-04-01T02:48:12;10.60;99.90
25753;DHT22;13600;50.816;4.416;2023-04-01T02:50:39;10.50;99.90
25753;DHT22;13600;50.816;4.416;2023-04-01T02:53:05;10.60;99.90
25753;DHT22;13600;50.816;4.416;2023-04-01T02:55:32;10.60;99.90
25753;DHT22;13600;50.816;4.416;2023-04-01T02:57:57;10.60;99.90
25753;DHT22;13600;50.816;4.416;2023-04-01T03:00:23;10.60;99.90
25753;DHT22;13600;50.816;4.416;2023-04-01T03:02:49;10.60;99.90
25753;DHT22;13600;50.816;4.416;2023-04-01T03:05:14;10.50;99.90
25753;DHT22;13600;50.816;4.416;2023-04-01T03:07:40;10.60;99.90
25753;DHT22;13600;50.816;4.416;2023-04-01T03:10:06;10.60;99.90
25753;DHT22;13600;50.816;4.416;2023-04-01T03:12:32;10.50;99.90
25753;DHT22;13600;50.816;4.416;2023-04-01T03:14:57;10.50;99.90
25753;DHT22;13600;50.816;4.416;2023-04-01T03:17:23;10.60;99.90
25753;DHT22;13600;50.816;4.416;2023-04-01T03:19:48;10.40;99.90
25753;DHT22;13600;50.816;4.416;2023-04-01T03:22:14;10.50;99.90
25753;DHT22;13600;50.816;4.416;2023-04-01T03:24:40;10.50;99.90
25753;DHT22;13600;50.816;4.416;2023-04-01T03:27:05;10.50;99.90
25753;DHT22;13600;50.816;4.416;2023-04-01T03:29:31;10.60;99.90
25753;DHT22;13600;50.816;4.416;2023-04-01T03:31:56;10.50;99.90
25753;DHT22;13600;50.816;4.416;2023-04-01T03:34:24;10.40;99.90
25753;DHT22;13600;50.816;4.416;2023-04-01T03:36:49;10.40;99.90
25753;DHT22;13600;50.816;4.416;2023-04-01T03:39:16;10.40;99.90
25753;DHT22;13600;50.816;4.416;2023-04-01T03:41:44;10.30;99.90
25753;DHT22;13600;50.816;4.416;2023-04-01T03:44:10;10.40;99.90
25753;DHT22;13600;50.816;4.416;2023-04-01T03:46:36;10.40;99.90
25753;DHT22;13600;50.816;4.416;2023-04-01T03:49:01;10.40;99.90
25753;DHT22;13600;50.816;4.416;2023-04-01T03:51:27;10.30;99.90
25753;DHT22;13600;50.816;4.416;2023-04-01T03:53:53;10.30;99.90
25753;DHT22;13600;50.816;4.416;2023-04-01T03:56:18;10.30;99.90
25753;DHT22;13600;50.816;4.416;2023-04-01T03:58:44;10.40;99.90
25753;DHT22;13600;50.816;4.416;2023-04-01T04:01:13;10.40;99.90
25753;DHT22;13600;50.816;4.416;2023-04-01T04:03:39;10.40;99.90
25753;DHT22;13600;50.816;4.416;2023-04-01T04:06:05;10.30;99.90
25753;DHT22;13600;50.816;4.416;2023-04-01T04:08:30;10.30;99.90
25753;DHT22;13600;50.816;4.416;2023-04-01T04:10:56;10.40;99.90
25753;DHT22;13600;50.816;4.416;2023-04-01T04:13:22;10.40;99.90
25753;DHT22;13600;50.816;4.416;2023-04-01T04:15:47;10.50;99.90
25753;DHT22;13600;50.816;4.416;2023-04-01T04:18:13;10.40;99.90
25753;DHT22;13600;50.816;4.416;2023-04-01T04:20:43;10.30;99.90
25753;DHT22;13600;50.816;4.416;2023-04-01T04:23:08;10.40;99.90
25753;DHT22;13600;50.816;4.416;2023-04-01T04:25:34;10.40;99.90
25753;DHT22;13600;50.816;4.416;2023-04-01T04:27:59;10.30;99.90
25753;DHT22;13600;50.816;4.416;2023-04-01T04:30:25;10.40;99.90
25753;DHT22;13600;50.816;4.416;2023-04-01T04:32:50;10.40;99.90
25753;DHT22;13600;50.816;4.416;2023-04-01T04:35:16;10.50;99.90
25753;DHT22;13600;50.816;4.416;2023-04-01T04:37:41;10.50;99.90
25753;DHT22;13600;50.816;4.416;2023-04-01T04:40:07;10.60;99.90
25753;DHT22;13600;50.816;4.416;2023-04-01T04:42:33;10.60;99.90
25753;DHT22;13600;50.816;4.416;2023-04-01T04:44:58;10.60;99.90
25753;DHT22;13600;50.816;4.416;2023-04-01T04:47:24;10.50;99.90
25753;DHT22;13600;50.816;4.416;2023-04-01T04:49:49;10.40;99.90
25753;DHT22;13600;50.816;4.416;2023-04-01T04:52:15;10.50;99.90
25753;DHT22;13600;50.816;4.416;2023-04-01T04:54:41;10.30;99.90
25753;DHT22;13600;50.816;4.416;2023-04-01T04:57:06;10.40;99.90
25753;DHT22;13600;50.816;4.416;2023-04-01T04:59:32;10.30;99.90
25753;DHT22;13600;50.816;4.416;2023-04-01T05:01:57;10.40;99.90
25753;DHT22;13600;50.816;4.416;2023-04-01T05:04:23;10.40;99.90
25753;DHT22;13600;50.816;4.416;2023-04-01T05:06:48;10.40;99.90
25753;DHT22;13600;50.816;4.416;2023-04-01T05:09:14;10.50;99.90
25753;DHT22;13600;50.816;4.416;2023-04-01T05:11:40;10.50;99.90
25753;DHT22;13600;50.816;4.416;2023-04-01T05:14:05;10.50;99.90
25753;DHT22;13600;50.816;4.416;2023-04-01T05:16:31;10.50;99.90
25753;DHT22;13600;50.816;4.416;2023-04-01T05:18:57;10.40;99.90
25753;DHT22;13600;50.816;4.416;2023-04-01T05:21:22;10.40;99.90
25753;DHT22;13600;50.816;4.416;2023-04-01T05:23:48;10.40;99.90
25753;DHT22;13600;50.816;4.416;2023-04-01T05:26:14;10.30;99.90
25753;DHT22;13600;50.816;4.416;2023-04-01T05:28:40;10.30;99.90
25753;DHT22;13600;50.816;4.416;2023-04-01T05:31:06;10.20;99.90
25753;DHT22;13600;50.816;4.416;2023-04-01T05:33:32;10.20;99.90
25753;DHT22;13600;50.816;4.416;2023-04-01T05:36:18;10.10;99.90
25753;DHT22;13600;50.816;4.416;2023-04-01T05:38:43;10.30;99.90
25753;DHT22;13600;50.816;4.416;2023-04-01T05:41:11;10.30;99.90
25753;DHT22;13600;50.816;4.416;2023-04-01T05:43:37;10.20;99.90
25753;DHT22;13600;50.816;4.416;2023-04-01T05:46:03;10.30;99.90
25753;DHT22;13600;50.816;4.416;2023-04-01T05:48:28;10.30;99.90
25753;DHT22;13600;50.816;4.416;2023-04-01T05:50:54;10.40;99.90
25753;DHT22;13600;50.816;4.416;2023-04-01T05:53:19;10.30;99.90
25753;DHT22;13600;50.816;4.416;2023-04-01T05:55:45;10.30;99.90
25753;DHT22;13600;50.816;4.416;2023-04-01T05:58:10;10.30;99.90
25753;DHT22;13600;50.816;4.416;2023-04-01T06:00:36;10.40;99.90
25753;DHT22;13600;50.816;4.416;2023-04-01T06:03:01;10.40;99.90
25753;DHT22;13600;50.816;4.416;2023-04-01T06:05:28;10.40;99.90
25753;DHT22;13600;50.816;4.416;2023-04-01T06:07:58;10.30;99.90
25753;DHT22;13600;50.816;4.416;2023-04-01T06:10:29;10.30;99.90
25753;DHT22;13600;50.816;4.416;2023-04-01T06:15:34;10.40;99.90
25753;DHT22;13600;50.816;4.416;2023-04-01T06:18:12;10.40;99.90
25753;DHT22;13600;50.816;4.416;2023-04-01T06:30:44;10.30;99.90
25753;DHT22;13600;50.816;4.416;2023-04-01T06:35:56;10.40;99.90
25753;DHT22;13600;50.816;4.416;2023-04-01T06:45:58;10.50;99.90
25753;DHT22;13600;50.816;4.416;2023-04-01T06:56:08;10.30;99.90
25753;DHT22;13600;50.816;4.416;2023-04-01T06:58:40;10.40;99.90
25753;DHT22;13600;50.816;4.416;2023-04-01T07:01:07;10.50;99.90
25753;DHT22;13600;50.816;4.416;2023-04-01T07:03:51;10.60;99.90
25753;DHT22;13600;50.816;4.416;2023-04-01T07:07:04;10.60;99.90
25753;DHT22;13600;50.816;4.416;2023-04-01T07:09:05;10.50;99.90
25753;DHT22;13600;50.816;4.416;2023-04-01T07:11:33;10.40;99.90
25753;DHT22;13600;50.816;4.416;2023-04-01T07:14:09;10.50;99.90
25753;DHT22;13600;50.816;4.416;2023-04-01T07:16:46;10.40;99.90
25753;DHT22;13600;50.816;4.416;2023-04-01T07:21:46;10.50;99.90
25753;DHT22;13600;50.816;4.416;2023-04-01T07:27:12;10.70;99.90
25753;DHT22;13600;50.816;4.416;2023-04-01T07:29:38;10.70;99.90
25753;DHT22;13600;50.816;4.416;2023-04-01T07:34:39;10.50;99.90
25753;DHT22;13600;50.816;4.416;2023-04-01T07:37:44;10.70;99.90
25753;DHT22;13600;50.816;4.416;2023-04-01T07:40:05;10.80;99.90
25753;DHT22;13600;50.816;4.416;2023-04-01T07:42:48;10.80;99.90
25753;DHT22;13600;50.816;4.416;2023-04-01T07:47:48;10.90;99.90
25753;DHT22;13600;50.816;4.416;2023-04-01T07:50:19;10.90;99.90
25753;DHT22;13600;50.816;4.416;2023-04-01T07:55:20;11.00;99.90
25753;DHT22;13600;50.816;4.416;2023-04-01T08:05:33;10.90;99.90
25753;DHT22;13600;50.816;4.416;2023-04-01T08:08:10;10.90;99.90
25753;DHT22;13600;50.816;4.416;2023-04-01T08:11:01;10.90;99.90
25753;DHT22;13600;50.816;4.416;2023-04-01T08:13:51;11.00;99.90
25753;DHT22;13600;50.816;4.416;2023-04-01T08:18:56;10.90;99.90
25753;DHT22;13600;50.816;4.416;2023-04-01T08:21:28;10.90;99.90
25753;DHT22;13600;50.816;4.416;2023-04-01T08:24:07;10.90;99.90
25753;DHT22;13600;50.816;4.416;2023-04-01T08:26:37;10.80;99.90
25753;DHT22;13600;50.816;4.416;2023-04-01T08:31:51;11.00;99.90
25753;DHT22;13600;50.816;4.416;2023-04-01T08:34:23;11.20;99.90
25753;DHT22;13600;50.816;4.416;2023-04-01T08:36:50;11.30;99.90
25753;DHT22;13600;50.816;4.416;2023-04-01T08:39:28;11.30;99.90
25753;DHT22;13600;50.816;4.416;2023-04-01T08:55:02;11.30;99.90
25753;DHT22;13600;50.816;4.416;2023-04-01T08:57:37;11.30;99.90
25753;DHT22;13600;50.816;4.416;2023-04-01T09:05:37;11.50;99.90
25753;DHT22;13600;50.816;4.416;2023-04-01T09:08:18;11.50;99.90
25753;DHT22;13600;50.816;4.416;2023-04-01T09:29:30;11.30;99.90
25753;DHT22;13600;50.816;4.416;2023-04-01T09:37:51;11.40;99.90
25753;DHT22;13600;50.816;4.416;2023-04-01T09:40:18;11.40;99.90
25753;DHT22;13600;50.816;4.416;2023-04-01T09:43:29;11.30;99.90
25753;DHT22;13600;50.816;4.416;2023-04-01T09:48:42;11.60;99.90
25753;DHT22;13600;50.816;4.416;2023-04-01T09:53:53;11.70;99.90
25753;DHT22;13600;50.816;4.416;2023-04-01T09:56:38;11.80;99.90
25753;DHT22;13600;50.816;4.416;2023-04-01T10:02:09;12.10;99.90
25753;DHT22;13600;50.816;4.416;2023-04-01T10:04:50;12.10;99.90
25753;DHT22;13600;50.816;4.416;2023-04-01T10:10:35;12.10;99.90
25753;DHT22;13600;50.816;4.416;2023-04-01T10:13:12;12.00;99.90
25753;DHT22;13600;50.816;4.416;2023-04-01T10:26:18;12.00;99.90
25753;DHT22;13600;50.816;4.416;2023-04-01T10:39:08;12.20;99.90
25753;DHT22;13600;50.816;4.416;2023-04-01T10:44:42;12.60;99.90
25753;DHT22;13600;50.816;4.416;2023-04-01T11:13:38;13.10;99.90
25753;DHT22;13600;50.816;4.416;2023-04-01T11:18:58;13.20;99.90
25753;DHT22;13600;50.816;4.416;2023-04-01T11:24:33;13.40;99.90
25753;DHT22;13600;50.816;4.416;2023-04-01T11:27:08;13.40;99.90
25753;DHT22;13600;50.816;4.416;2023-04-01T11:29:43;13.30;99.90
25753;DHT22;13600;50.816;4.416;2023-04-01T11:45:58;13.10;99.90
25753;DHT22;13600;50.816;4.416;2023-04-01T11:54:01;12.80;99.90
25753;DHT22;13600;50.816;4.416;2023-04-01T11:59:04;13.20;99.90
25753;DHT22;13600;50.816;4.416;2023-04-01T12:06:50;12.90;99.90
25753;DHT22;13600;50.816;4.416;2023-04-01T12:14:36;12.90;99.90
25753;DHT22;13600;50.816;4.416;2023-04-01T12:19:42;12.60;99.90
25753;DHT22;13600;50.816;4.416;2023-04-01T12:37:34;12.60;99.90
25753;DHT22;13600;50.816;4.416;2023-04-01T13:08:35;12.00;99.90
25753;DHT22;13600;50.816;4.416;2023-04-01T13:16:14;12.40;99.90
25753;DHT22;13600;50.816;4.416;2023-04-01T13:18:51;12.30;99.90
25753;DHT22;13600;50.816;4.416;2023-04-01T13:26:37;12.50;99.90
25753;DHT22;13600;50.816;4.416;2023-04-01T13:31:51;12.40;99.90
25753;DHT22;13600;50.816;4.416;2023-04-01T13:42:09;12.10;99.90
25753;DHT22;13600;50.816;4.416;2023-04-01T13:45:20;12.10;99.90
25753;DHT22;13600;50.816;4.416;2023-04-01T14:03:25;12.00;99.90
25753;DHT22;13600;50.816;4.416;2023-04-01T14:06:05;12.10;99.90
25753;DHT22;13600;50.816;4.416;2023-04-01T14:08:49;12.40;99.90
25753;DHT22;13600;50.816;4.416;2023-04-01T14:11:17;12.60;99.90
25753;DHT22;13600;50.816;4.416;2023-04-01T14:13:59;12.80;99.90
25753;DHT22;13600;50.816;4.416;2023-04-01T14:25:01;12.60;99.90
25753;DHT22;13600;50.816;4.416;2023-04-01T14:30:04;12.80;99.90
25753;DHT22;13600;50.816;4.416;2023-04-01T14:35:11;12.90;99.90
25753;DHT22;13600;50.816;4.416;2023-04-01T14:40:20;12.70;99.90
25753;DHT22;13600;50.816;4.416;2023-04-01T14:43:04;12.70;99.90
25753;DHT22;13600;50.816;4.416;2023-04-01T14:50:54;12.50;99.90
25753;DHT22;13600;50.816;4.416;2023-04-01T14:55:53;12.30;99.90
25753;DHT22;13600;50.816;4.416;2023-04-01T14:58:20;12.50;99.90
25753;DHT22;13600;50.816;4.416;2023-04-01T15:05:42;12.50;99.90
25753;DHT22;13600;50.816;4.416;2023-04-01T15:10:49;12.50;99.90
25753;DHT22;13600;50.816;4.416;2023-04-01T15:23:35;12.40;99.90
25753;DHT22;13600;50.816;4.416;2023-04-01T15:28:35;12.30;99.90
25753;DHT22;13600;50.816;4.416;2023-04-01T15:31:05;12.40;99.90
25753;DHT22;13600;50.816;4.416;2023-04-01T15:41:23;12.50;99.90
25753;DHT22;13600;50.816;4.416;2023-04-01T15:43:51;12.50;99.90
25753;DHT22;13600;50.816;4.416;2023-04-01T15:56:44;12.00;99.90
25753;DHT22;13600;50.816;4.416;2023-04-01T15:59:28;12.10;99.90
25753;DHT22;13600;50.816;4.416;2023-04-01T16:02:19;12.10;99.90
25753;DHT22;13600;50.816;4.416;2023-04-01T16:04:46;11.90;99.90
25753;DHT22;13600;50.816;4.416;2023-04-01T16:12:48;11.60;99.90
25753;DHT22;13600;50.816;4.416;2023-04-01T16:28:25;11.30;99.90
25753;DHT22;13600;50.816;4.416;2023-04-01T16:31:13;11.10;99.90
25753;DHT22;13600;50.816;4.416;2023-04-01T16:33:45;11.20;99.90
25753;DHT22;13600;50.816;4.416;2023-04-01T16:36:28;11.20;99.90
25753;DHT22;13600;50.816;4.416;2023-04-01T16:44:26;11.10;99.90
25753;DHT22;13600;50.816;4.416;2023-04-01T16:49:25;11.10;99.90
25753;DHT22;13600;50.816;4.416;2023-04-01T16:54:36;11.20;99.90
25753;DHT22;13600;50.816;4.416;2023-04-01T16:59:55;11.20;99.90
25753;DHT22;13600;50.816;4.416;2023-04-01T17:02:26;11.20;99.90
25753;DHT22;13600;50.816;4.416;2023-04-01T17:04:57;11.20;99.90
25753;DHT22;13600;50.816;4.416;2023-04-01T17:07:30;11.20;99.90
25753;DHT22;13600;50.816;4.416;2023-04-01T17:15:43;11.10;99.90
25753;DHT22;13600;50.816;4.416;2023-04-01T17:18:13;10.90;99.90
25753;DHT22;13600;50.816;4.416;2023-04-01T17:25:41;10.90;99.90
25753;DHT22;13600;50.816;4.416;2023-04-01T17:31:20;11.10;99.90
25753;DHT22;13600;50.816;4.416;2023-04-01T17:36:14;11.20;99.90
25753;DHT22;13600;50.816;4.416;2023-04-01T17:44:38;11.00;99.90
25753;DHT22;13600;50.816;4.416;2023-04-01T17:51:40;11.20;99.90
25753;DHT22;13600;50.816;4.416;2023-04-01T18:01:42;11.10;99.90
25753;DHT22;13600;50.816;4.416;2023-04-01T18:04:15;11.00;99.90
25753;DHT22;13600;50.816;4.416;2023-04-01T18:06:56;11.10;99.90
25753;DHT22;13600;50.816;4.416;2023-04-01T18:11:57;11.10;99.90
25753;DHT22;13600;50.816;4.416;2023-04-01T18:22:29;11.00;99.90
25753;DHT22;13600;50.816;4.416;2023-04-01T18:27:48;10.90;99.90
25753;DHT22;13600;50.816;4.416;2023-04-01T18:30:17;10.70;99.90
25753;DHT22;13600;50.816;4.416;2023-04-01T18:32:46;10.70;99.90
25753;DHT22;13600;50.816;4.416;2023-04-01T18:37:58;10.50;99.90
25753;DHT22;13600;50.816;4.416;2023-04-01T18:45:26;10.50;99.90
25753;DHT22;13600;50.816;4.416;2023-04-01T18:47:59;10.60;99.90
25753;DHT22;13600;50.816;4.416;2023-04-01T18:50:51;10.60;99.90
25753;DHT22;13600;50.816;4.416;2023-04-01T18:53:29;10.50;99.90
25753;DHT22;13600;50.816;4.416;2023-04-01T18:55:56;10.60;99.90
25753;DHT22;13600;50.816;4.416;2023-04-01T19:03:38;10.50;99.90
25753;DHT22;13600;50.816;4.416;2023-04-01T19:06:16;10.50;99.90
25753;DHT22;13600;50.816;4.416;2023-04-01T19:08:42;10.50;99.90
25753;DHT22;13600;50.816;4.416;2023-04-01T19:11:26;10.50;99.90
25753;DHT22;13600;50.816;4.416;2023-04-01T19:13:58;10.50;99.90
25753;DHT22;13600;50.816;4.416;2023-04-01T19:21:33;10.30;99.90
25753;DHT22;13600;50.816;4.416;2023-04-01T19:26:53;10.30;99.90
25753;DHT22;13600;50.816;4.416;2023-04-01T19:32:16;10.40;99.90
25753;DHT22;13600;50.816;4.416;2023-04-01T19:47:57;10.30;99.90
25753;DHT22;13600;50.816;4.416;2023-04-01T19:55:47;10.50;99.90
25753;DHT22;13600;50.816;4.416;2023-04-01T19:58:24;10.50;99.90
25753;DHT22;13600;50.816;4.416;2023-04-01T20:00:52;10.50;99.90
25753;DHT22;13600;50.816;4.416;2023-04-01T20:09:11;10.50;99.90
25753;DHT22;13600;50.816;4.416;2023-04-01T20:14:08;10.30;99.90
25753;DHT22;13600;50.816;4.416;2023-04-01T20:19:26;10.30;99.90
25753;DHT22;13600;50.816;4.416;2023-04-01T20:21:56;10.40;99.90
25753;DHT22;13600;50.816;4.416;2023-04-01T20:24:26;10.50;99.90
25753;DHT22;13600;50.816;4.416;2023-04-01T20:27:29;10.30;99.90
25753;DHT22;13600;50.816;4.416;2023-04-01T20:30:00;10.40;99.90
25753;DHT22;13600;50.816;4.416;2023-04-01T20:50:51;10.40;99.90
25753;DHT22;13600;50.816;4.416;2023-04-01T20:53:21;10.20;99.90
25753;DHT22;13600;50.816;4.416;2023-04-01T20:55:55;10.20;99.90
25753;DHT22;13600;50.816;4.416;2023-04-01T21:11:25;10.40;99.90
25753;DHT22;13600;50.816;4.416;2023-04-01T21:18:57;10.50;99.90
25753;DHT22;13600;50.816;4.416;2023-04-01T21:31:42;10.60;99.90
25753;DHT22;13600;50.816;4.416;2023-04-01T21:42:11;10.80;99.90
25753;DHT22;13600;50.816;4.416;2023-04-01T21:44:45;10.70;99.90
25753;DHT22;13600;50.816;4.416;2023-04-01T21:52:23;10.70;99.90
25753;DHT22;13600;50.816;4.416;2023-04-01T22:05:22;11.00;99.90
25753;DHT22;13600;50.816;4.416;2023-04-01T22:07:58;10.90;99.90
25753;DHT22;13600;50.816;4.416;2023-04-01T22:10:29;10.80;99.90
25753;DHT22;13600;50.816;4.416;2023-04-01T22:13:04;10.90;99.90
25753;DHT22;13600;50.816;4.416;2023-04-01T22:23:42;10.70;99.90
25753;DHT22;13600;50.816;4.416;2023-04-01T22:26:14;10.60;99.90
25753;DHT22;13600;50.816;4.416;2023-04-01T22:31:11;10.80;99.90
25753;DHT22;13600;50.816;4.416;2023-04-01T22:34:00;10.90;99.90
25753;DHT22;13600;50.816;4.416;2023-04-01T22:44:02;11.00;99.90
25753;DHT22;13600;50.816;4.416;2023-04-01T22:48:54;11.00;99.90
25753;DHT22;13600;50.816;4.416;2023-04-01T22:51:38;11.10;99.90
25753;DHT22;13600;50.816;4.416;2023-04-01T22:56:44;10.80;99.90
25753;DHT22;13600;50.816;4.416;2023-04-01T22:59:15;10.60;99.90
25753;DHT22;13600;50.816;4.416;2023-04-01T23:01:44;10.70;99.90
25753;DHT22;13600;50.816;4.416;2023-04-01T23:04:15;10.60;99.90
25753;DHT22;13600;50.816;4.416;2023-04-01T23:06:43;10.60;99.90
25753;DHT22;13600;50.816;4.416;2023-04-01T23:09:27;10.60;99.90
25753;DHT22;13600;50.816;4.416;2023-04-01T23:11:58;10.60;99.90
25753;DHT22;13600;50.816;4.416;2023-04-01T23:14:36;10.70;99.90
25753;DHT22;13600;50.816;4.416;2023-04-01T23:24:39;10.70;99.90
25753;DHT22;13600;50.816;4.416;2023-04-01T23:29:51;10.60;99.90
25753;DHT22;13600;50.816;4.416;2023-04-01T23:32:25;10.60;99.90
25753;DHT22;13600;50.816;4.416;2023-04-01T23:34:52;10.60;99.90
25753;DHT22;13600;50.816;4.416;2023-04-01T23:37:19;10.50;99.90
25753;DHT22;13600;50.816;4.416;2023-04-01T23:39:45;10.50;99.90
25753;DHT22;13600;50.816;4.416;2023-04-01T23:42:22;10.40;99.90
25753;DHT22;13600;50.816;4.416;2023-04-01T23:44:49;10.40;99.90
25753;DHT22;13600;50.816;4.416;2023-04-01T23:47:17;10.40;99.90
25753;DHT22;13600;50.816;4.416;2023-04-01T23:53:00;10.60;99.90
25753;DHT22;13600;50.816;4.416;2023-04-01T23:55:28;10.70;99.90
